createdAt,value
2024-02-22T00:10:40.385Z,4.28
2024-02-22T00:13:40.229Z,5.28
2024-02-22T00:17:11.234Z,5.13
2024-02-22T00:19:57.396Z,10.52
2024-02-22T00:22:43.666Z,4.00
2024-02-22T00:25:30.130Z,9.13
2024-02-22T00:28:18.239Z,6.50
2024-02-22T00:31:06.431Z,6.22
2024-02-22T00:33:52.568Z,6.00
2024-02-22T00:36:42.489Z,6.75
2024-02-22T00:39:28.804Z,4.32
2024-02-22T00:42:24.789Z,7.75
2024-02-22T00:45:11.627Z,9.82
2024-02-22T00:48:00.289Z,4.32
2024-02-22T00:50:46.930Z,2.67
2024-02-22T00:53:33.146Z,4.65
2024-02-22T00:56:19.491Z,13.45
2024-02-22T00:59:05.549Z,2.72
2024-02-22T01:01:52.439Z,2.63
2024-02-22T01:04:39.065Z,3.58
2024-02-22T01:07:25.249Z,4.47
2024-02-22T01:10:11.352Z,6.03
2024-02-22T01:12:57.850Z,4.32
2024-02-22T01:15:44.227Z,3.55
2024-02-22T01:18:30.325Z,9.07
2024-02-22T01:21:16.461Z,7.13
2024-02-22T01:24:02.905Z,2.97
2024-02-22T01:26:49.248Z,11.90
2024-02-22T01:29:35.630Z,7.68
2024-02-22T01:32:21.833Z,4.53
2024-02-22T01:35:10.184Z,5.93
2024-02-22T01:37:56.871Z,2.90
2024-02-22T01:40:43.009Z,3.63
2024-02-22T01:43:30.443Z,4.13
2024-02-22T01:46:16.730Z,1.88
2024-02-22T01:49:03.443Z,3.90
2024-02-22T01:51:50.046Z,7.43
2024-02-22T01:54:36.430Z,3.63
2024-02-22T01:57:25.217Z,2.63
2024-02-22T02:03:22.258Z,10.48
2024-02-22T02:06:09.161Z,5.97
2024-02-22T02:08:56.959Z,5.05
2024-02-22T02:11:43.316Z,2.85
2024-02-22T02:14:29.522Z,6.18
2024-02-22T02:28:56.699Z,6.88
2024-02-22T02:47:38.158Z,1.85
2024-02-22T02:50:24.545Z,4.22
2024-02-22T02:53:18.189Z,8.30
2024-02-22T02:56:07.716Z,2.90
2024-02-22T02:58:53.944Z,3.28
2024-02-22T03:01:48.686Z,3.60
2024-02-22T03:04:35.236Z,3.70
2024-02-22T03:07:21.366Z,2.03
2024-02-22T03:10:07.590Z,2.03
2024-02-22T03:12:53.922Z,3.67
2024-02-22T03:15:40.058Z,2.78
2024-02-22T03:18:27.441Z,2.03
2024-02-22T03:21:13.453Z,2.95
2024-02-22T03:23:59.792Z,3.17
2024-02-22T03:26:47.701Z,3.53
2024-02-22T03:29:33.823Z,5.18
2024-02-22T03:32:20.023Z,2.75
2024-02-22T03:35:06.715Z,3.45
2024-02-22T03:37:52.919Z,6.85
2024-02-22T03:40:39.310Z,1.70
2024-02-22T03:43:25.401Z,2.13
2024-02-22T03:46:11.916Z,2.08
2024-02-22T03:48:58.306Z,4.65
2024-02-22T03:51:44.175Z,5.97
2024-02-22T03:54:32.330Z,2.20
2024-02-22T03:57:18.455Z,2.55
2024-02-22T04:00:08.026Z,4.05
2024-02-22T04:03:03.824Z,0.70
2024-02-22T04:05:49.999Z,2.80
2024-02-22T04:08:36.348Z,3.30
2024-02-22T04:11:22.823Z,3.63
2024-02-22T04:14:09.712Z,1.77
2024-02-22T04:16:56.096Z,2.08
2024-02-22T04:20:05.852Z,2.28
2024-02-22T04:22:52.905Z,2.28
2024-02-22T04:25:40.576Z,2.88
2024-02-22T04:28:27.315Z,2.35
2024-02-22T04:31:13.720Z,3.60
2024-02-22T04:34:00.570Z,4.97
2024-02-22T04:36:46.467Z,3.35
2024-02-22T04:39:32.784Z,1.48
2024-02-22T04:42:18.923Z,1.85
2024-02-22T04:45:05.945Z,2.97
2024-02-22T04:47:51.931Z,2.35
2024-02-22T04:50:37.976Z,2.30
2024-02-22T04:53:24.260Z,14.60
2024-02-22T04:56:10.487Z,17.88
2024-02-22T04:58:57.327Z,4.25
2024-02-22T05:01:43.810Z,1.63
2024-02-22T05:04:32.188Z,1.63
2024-02-22T05:07:18.463Z,6.50
2024-02-22T05:10:04.842Z,4.47
2024-02-22T05:12:50.823Z,4.07
2024-02-22T05:15:37.160Z,3.63
2024-02-22T05:18:23.668Z,9.05
2024-02-22T05:21:09.829Z,3.80
2024-02-22T05:23:55.847Z,7.13
2024-02-22T05:26:42.109Z,12.35
2024-02-22T05:29:28.464Z,6.95
2024-02-22T05:32:17.999Z,7.43
2024-02-22T05:35:22.830Z,5.95
2024-02-22T05:38:09.180Z,12.18
2024-02-22T05:40:55.441Z,21.73
2024-02-22T05:43:41.858Z,8.77
2024-02-22T05:46:27.908Z,19.73
2024-02-22T05:49:14.224Z,11.00
2024-02-22T05:52:04.502Z,5.35
2024-02-22T05:54:50.779Z,3.17
2024-02-22T05:57:37.855Z,6.65
2024-02-22T06:00:25.830Z,7.65
2024-02-22T06:03:12.446Z,3.53
2024-02-22T06:05:58.749Z,19.77
2024-02-22T06:08:45.225Z,2.47
2024-02-22T06:11:31.629Z,12.95
2024-02-22T06:14:37.380Z,2.78
2024-02-22T06:17:25.651Z,13.65
2024-02-22T06:20:14.608Z,5.53
2024-02-22T06:23:14.536Z,19.40
2024-02-22T06:26:02.280Z,20.55
2024-02-22T06:28:49.032Z,10.75
2024-02-22T06:31:35.224Z,4.22
2024-02-22T06:34:21.668Z,3.08
2024-02-22T06:37:08.128Z,2.25
2024-02-22T06:40:45.050Z,7.25
2024-02-22T06:47:07.729Z,6.32
2024-02-22T06:49:54.475Z,2.95
2024-02-22T06:52:40.841Z,28.25
2024-02-22T06:55:27.533Z,6.97
2024-02-22T06:58:14.224Z,4.20
2024-02-22T07:01:00.551Z,1.55
2024-02-22T07:03:46.756Z,2.78
2024-02-22T07:06:33.102Z,2.70
2024-02-22T07:09:19.641Z,8.45
2024-02-22T07:12:06.467Z,7.28
2024-02-22T07:14:52.684Z,5.38
2024-02-22T07:17:39.383Z,2.80
2024-02-22T07:20:26.392Z,12.10
2024-02-22T07:23:13.313Z,4.57
2024-02-22T07:25:59.759Z,9.93
2024-02-22T07:28:47.608Z,2.05
2024-02-22T07:31:34.062Z,6.68
2024-02-22T07:34:20.698Z,3.38
2024-02-22T07:37:07.717Z,4.65
2024-02-22T07:39:57.198Z,1.67
2024-02-22T07:42:47.354Z,3.00
2024-02-22T07:45:34.000Z,3.75
2024-02-22T07:48:26.447Z,8.15
2024-02-22T07:57:27.797Z,3.35
2024-02-22T08:00:15.716Z,7.18
2024-02-22T08:03:08.015Z,4.82
2024-02-22T08:05:55.486Z,11.65
2024-02-22T08:08:42.000Z,11.85
2024-02-22T08:11:35.278Z,18.50
2024-02-22T08:14:21.799Z,12.48
2024-02-22T08:17:09.817Z,14.45
2024-02-22T08:19:58.603Z,4.28
2024-02-22T08:22:45.320Z,9.43
2024-02-22T08:25:32.170Z,10.13
2024-02-22T08:28:18.773Z,8.85
2024-02-22T08:31:05.058Z,15.95
2024-02-22T08:33:51.697Z,15.55
2024-02-22T08:36:38.078Z,28.30
2024-02-22T08:39:24.580Z,24.08
2024-02-22T08:42:11.101Z,8.05
2024-02-22T08:44:57.604Z,6.40
2024-02-22T08:47:43.967Z,4.85
2024-02-22T08:50:30.802Z,1.88
2024-02-22T08:53:17.374Z,2.40
2024-02-22T08:56:04.020Z,1.80
2024-02-22T08:58:50.765Z,6.38
2024-02-22T09:01:36.961Z,9.10
2024-02-22T09:04:28.542Z,10.55
2024-02-22T09:07:15.129Z,10.50
2024-02-22T09:10:02.183Z,6.93
2024-02-22T09:12:48.448Z,2.25
2024-02-22T09:15:35.824Z,6.68
2024-02-22T09:18:25.354Z,2.47
2024-02-22T09:21:11.773Z,12.98
2024-02-22T09:23:58.313Z,5.53
2024-02-22T09:27:10.404Z,2.13
2024-02-22T09:29:59.602Z,0.93
2024-02-22T09:32:46.196Z,11.43
2024-02-22T09:35:32.586Z,9.48
2024-02-22T09:38:18.912Z,9.48
2024-02-22T09:41:05.690Z,7.97
2024-02-22T09:43:53.431Z,5.68
2024-02-22T09:46:40.450Z,15.02
2024-02-22T09:49:27.198Z,29.63
2024-02-22T09:52:17.045Z,28.42
2024-02-22T09:55:05.056Z,26.65
2024-02-22T09:57:51.543Z,152.95
2024-02-22T10:00:38.217Z,39.15
2024-02-22T10:03:34.041Z,20.70
2024-02-22T10:06:21.488Z,21.42
2024-02-22T10:09:08.145Z,16.15
2024-02-22T10:11:55.296Z,30.13
2024-02-22T10:15:03.243Z,34.13
2024-02-22T10:17:51.562Z,33.28
2024-02-22T10:20:59.692Z,31.17
2024-02-22T10:23:49.235Z,43.50
2024-02-22T10:26:36.439Z,73.05
2024-02-22T10:29:30.420Z,29.05
2024-02-22T10:32:23.633Z,40.08
2024-02-22T10:35:13.923Z,35.50
2024-02-22T10:38:03.490Z,28.10
2024-02-22T10:40:50.776Z,43.65
2024-02-22T10:43:37.996Z,34.00
2024-02-22T10:46:28.165Z,23.35
2024-02-22T10:49:15.382Z,23.23
2024-02-22T10:52:04.847Z,29.98
2024-02-22T10:54:53.570Z,28.52
2024-02-22T10:57:40.163Z,31.70
2024-02-22T11:00:27.728Z,22.13
2024-02-22T11:03:14.500Z,28.58
2024-02-22T11:06:05.706Z,18.85
2024-02-22T11:08:54.199Z,24.48
2024-02-22T11:11:44.215Z,30.23
2024-02-22T11:14:35.824Z,17.00
2024-02-22T11:17:24.091Z,62.08
2024-02-22T11:20:12.038Z,27.98
2024-02-22T11:23:18.091Z,27.98
2024-02-22T11:26:05.895Z,95.45
2024-02-22T11:28:53.884Z,18.10
2024-02-22T11:31:40.203Z,21.77
2024-02-22T11:34:28.083Z,17.85
2024-02-22T11:37:23.639Z,14.05
2024-02-22T11:40:20.500Z,29.05
2024-02-22T11:43:10.732Z,36.15
2024-02-22T11:46:02.992Z,24.35
2024-02-22T11:48:54.457Z,15.50
2024-02-22T11:51:58.130Z,31.08
2024-02-22T11:54:50.631Z,39.92
2024-02-22T11:57:41.893Z,15.40
2024-02-22T12:00:28.671Z,21.20
2024-02-22T12:03:17.872Z,25.00
2024-02-22T12:06:08.524Z,15.48
2024-02-22T12:08:55.658Z,15.80
2024-02-22T12:11:42.673Z,13.02
2024-02-22T12:14:29.226Z,7.75
2024-02-22T12:17:15.637Z,10.98
2024-02-22T12:20:02.388Z,11.75
2024-02-22T12:22:54.747Z,55.95
2024-02-22T12:25:51.010Z,47.22
2024-02-22T12:28:38.831Z,31.65
2024-02-22T12:31:28.447Z,50.95
2024-02-22T12:34:16.190Z,19.27
2024-02-22T12:37:02.628Z,20.48
2024-02-22T12:39:51.751Z,21.15
2024-02-22T12:42:38.209Z,6.85
2024-02-22T12:45:24.888Z,12.07
2024-02-22T12:48:11.319Z,22.02
2024-02-22T12:50:58.333Z,20.17
2024-02-22T12:53:50.133Z,22.80
2024-02-22T12:56:38.020Z,18.23
2024-02-22T12:59:30.159Z,19.95
2024-02-22T13:02:17.654Z,21.08
2024-02-22T13:05:04.397Z,10.02
2024-02-22T13:07:50.962Z,6.20
2024-02-22T13:10:37.489Z,35.40
2024-02-22T13:13:23.731Z,24.73
2024-02-22T13:16:10.208Z,8.10
2024-02-22T13:18:57.351Z,18.38
2024-02-22T13:21:45.008Z,34.85
2024-02-22T13:24:33.978Z,39.70
2024-02-22T13:27:20.387Z,31.00
2024-02-22T13:30:11.437Z,12.25
2024-02-22T13:32:59.255Z,19.58
2024-02-22T13:35:49.241Z,16.83
2024-02-22T13:38:38.642Z,10.85
2024-02-22T13:41:26.797Z,9.90
2024-02-22T13:44:20.152Z,17.75
2024-02-22T13:47:12.401Z,22.73
2024-02-22T13:49:59.951Z,40.85
2024-02-22T13:52:46.044Z,26.10
2024-02-22T13:55:32.430Z,12.07
2024-02-22T13:58:19.488Z,24.77
2024-02-22T14:01:05.898Z,12.27
2024-02-22T14:03:59.403Z,45.78
2024-02-22T14:06:49.071Z,31.95
2024-02-22T14:09:39.780Z,19.40
2024-02-22T14:12:27.595Z,41.70
2024-02-22T14:15:14.276Z,35.40
2024-02-22T14:18:00.543Z,68.22
2024-02-22T14:20:47.109Z,79.68
2024-02-22T14:23:33.593Z,57.20
2024-02-22T14:26:20.077Z,41.00
2024-02-22T14:29:07.052Z,34.45
2024-02-22T14:31:54.904Z,252.60
2024-02-22T14:34:42.500Z,36.78
2024-02-22T14:37:30.959Z,71.38
2024-02-22T14:40:18.532Z,24.02
2024-02-22T14:43:04.910Z,26.42
2024-02-22T14:45:51.770Z,67.38
2024-02-22T14:48:56.614Z,139.10
2024-02-22T14:51:42.859Z,204.52
2024-02-22T14:54:29.130Z,140.95
2024-02-22T14:57:15.448Z,129.55
2024-02-22T15:00:02.169Z,91.68
2024-02-22T15:03:07.377Z,42.03
2024-02-22T15:05:53.741Z,103.35
2024-02-22T15:08:42.301Z,79.30
2024-02-22T15:11:28.677Z,35.97
2024-02-22T15:14:15.127Z,59.97
2024-02-22T15:17:02.012Z,34.75
2024-02-22T15:19:48.336Z,37.47
2024-02-22T15:22:35.597Z,50.63
2024-02-22T15:25:23.988Z,80.22
2024-02-22T15:28:10.614Z,76.35
2024-02-22T15:31:00.111Z,113.53
2024-02-22T15:33:48.833Z,72.72
2024-02-22T15:36:40.088Z,142.75
2024-02-22T15:39:27.222Z,40.25
2024-02-22T15:42:13.618Z,21.48
2024-02-22T15:45:00.012Z,30.08
2024-02-22T15:47:46.204Z,51.80
2024-02-22T15:50:51.002Z,25.50
2024-02-22T15:53:37.302Z,36.38
2024-02-22T15:56:26.863Z,17.73
2024-02-22T15:59:13.515Z,24.98
2024-02-22T16:01:59.922Z,63.22
2024-02-22T16:04:46.358Z,35.75
2024-02-22T16:07:32.929Z,37.85
2024-02-22T16:10:20.361Z,29.67
2024-02-22T16:13:07.168Z,39.20
2024-02-22T16:15:55.191Z,632.33
2024-02-22T16:18:41.412Z,797.60
2024-02-22T16:21:28.343Z,505.15
2024-02-22T16:24:14.787Z,384.33
2024-02-22T16:27:02.404Z,497.20
2024-02-22T16:29:52.674Z,316.00
2024-02-22T16:32:41.921Z,833.58
2024-02-22T16:35:29.551Z,227.38
2024-02-22T16:38:16.210Z,152.70
2024-02-22T16:41:06.393Z,204.38
2024-02-22T16:43:53.915Z,92.43
2024-02-22T16:46:42.335Z,56.45
2024-02-22T16:49:29.624Z,57.70
2024-02-22T16:52:16.149Z,88.35
2024-02-22T16:55:02.811Z,112.07
2024-02-22T16:57:49.395Z,108.45
2024-02-22T17:00:36.370Z,47.47
2024-02-22T17:03:22.936Z,145.75
2024-02-22T17:06:09.282Z,109.22
2024-02-22T17:08:56.103Z,132.07
2024-02-22T17:11:42.307Z,164.07
2024-02-22T17:14:31.998Z,102.05
2024-02-22T17:17:22.012Z,230.35
2024-02-22T17:20:11.841Z,125.28
2024-02-22T17:22:59.218Z,116.30
2024-02-22T17:25:45.509Z,76.50
2024-02-22T17:28:35.049Z,128.20
2024-02-22T17:31:21.990Z,39.80
2024-02-22T17:34:08.442Z,154.43
2024-02-22T17:36:54.717Z,64.07
2024-02-22T17:39:44.282Z,82.22
2024-02-22T17:42:32.317Z,36.65
2024-02-22T17:45:19.343Z,68.35
2024-02-22T17:48:06.084Z,72.13
2024-02-22T17:50:52.758Z,39.10
2024-02-22T17:53:40.640Z,42.13
2024-02-22T17:56:27.078Z,15.50
2024-02-22T17:59:16.885Z,82.53
2024-02-22T18:02:04.124Z,14.43
2024-02-22T18:04:51.343Z,34.30
2024-02-22T18:07:44.412Z,45.67
2024-02-22T18:10:37.159Z,45.03
2024-02-22T18:13:28.275Z,21.55
2024-02-22T18:16:26.232Z,168.02
2024-02-22T18:19:15.313Z,37.60
2024-02-22T18:22:09.528Z,52.55
2024-02-22T18:24:56.831Z,122.65
2024-02-22T18:27:45.913Z,74.65
2024-02-22T18:30:37.646Z,42.00
2024-02-22T18:33:26.675Z,20.38
2024-02-22T18:36:14.590Z,21.70
2024-02-22T18:39:01.966Z,29.10
2024-02-22T18:41:48.795Z,31.42
2024-02-22T18:44:39.335Z,19.88
2024-02-22T18:47:26.762Z,6.00
2024-02-22T18:50:13.411Z,14.85
2024-02-22T18:53:00.486Z,24.60
2024-02-22T18:55:46.854Z,14.27
2024-02-22T18:58:33.642Z,45.28
2024-02-22T19:01:19.848Z,60.00
2024-02-22T19:04:06.649Z,79.03
2024-02-22T19:06:57.620Z,41.33
2024-02-22T19:09:43.928Z,42.17
2024-02-22T19:12:30.835Z,59.20
2024-02-22T19:15:19.370Z,68.47
2024-02-22T19:18:07.005Z,143.27
2024-02-22T19:20:55.605Z,27.60
2024-02-22T19:23:44.617Z,36.08
2024-02-22T19:26:31.097Z,14.20
2024-02-22T19:29:18.128Z,19.60
2024-02-22T19:32:05.506Z,21.83
2024-02-22T19:34:52.361Z,8.57
2024-02-22T19:37:38.946Z,25.58
2024-02-22T19:40:25.652Z,25.77
2024-02-22T19:43:12.812Z,16.63
2024-02-22T19:45:59.356Z,8.32
2024-02-22T19:48:47.215Z,21.52
2024-02-22T19:51:33.711Z,29.60
2024-02-22T19:54:20.407Z,19.02
2024-02-22T19:57:06.599Z,40.63
2024-02-22T19:59:52.941Z,9.48
2024-02-22T20:02:39.642Z,7.25
2024-02-22T20:05:26.035Z,15.20
2024-02-22T20:08:12.802Z,22.52
2024-02-22T20:11:01.151Z,8.07
2024-02-22T20:13:48.559Z,12.88
2024-02-22T20:16:35.260Z,22.77
2024-02-22T20:19:22.222Z,14.13
2024-02-22T20:22:08.769Z,24.52
2024-02-22T20:24:56.540Z,11.55
2024-02-22T20:27:43.100Z,16.50
2024-02-22T20:30:30.059Z,15.07
2024-02-22T20:33:18.573Z,28.67
2024-02-22T20:36:08.917Z,32.90
2024-02-22T20:38:55.765Z,24.92
2024-02-22T20:41:42.252Z,18.48
2024-02-22T20:44:29.243Z,42.28
2024-02-22T20:47:16.970Z,37.17
2024-02-22T20:50:03.691Z,58.97
2024-02-22T20:52:50.096Z,16.42
2024-02-22T20:55:36.646Z,13.95
2024-02-22T20:58:25.739Z,41.10
2024-02-22T21:01:13.025Z,35.05
2024-02-22T21:03:59.457Z,15.00
2024-02-22T21:06:46.451Z,6.13
2024-02-22T21:09:33.166Z,6.20
2024-02-22T21:12:19.463Z,11.75
2024-02-22T21:15:09.454Z,3.60
2024-02-22T21:17:55.824Z,5.25
2024-02-22T21:20:43.177Z,2.60
2024-02-22T21:23:30.821Z,2.35
2024-02-22T21:26:17.887Z,7.07
2024-02-22T21:29:04.408Z,5.30
2024-02-22T21:31:53.025Z,2.75
2024-02-22T21:34:39.539Z,1.27
2024-02-22T21:37:29.442Z,9.45
2024-02-22T21:40:16.272Z,6.22
2024-02-22T21:43:02.722Z,4.50
2024-02-22T21:45:50.281Z,6.38
2024-02-22T21:48:37.500Z,4.85
2024-02-22T21:51:24.125Z,1.90
2024-02-22T21:54:10.888Z,8.63
2024-02-22T21:56:57.114Z,9.45
2024-02-22T21:59:43.469Z,4.65
2024-02-22T22:02:30.463Z,5.20
2024-02-22T22:05:17.048Z,4.10
2024-02-22T22:08:03.104Z,5.93
2024-02-22T22:10:49.452Z,4.07
2024-02-22T22:13:41.572Z,4.60
2024-02-22T22:16:29.100Z,2.55
2024-02-22T22:19:15.360Z,4.03
2024-02-22T22:22:02.690Z,3.03
2024-02-22T22:24:51.826Z,5.93
2024-02-22T22:27:39.495Z,3.67
2024-02-22T22:30:28.048Z,5.55
2024-02-22T22:33:15.042Z,2.50
2024-02-22T22:36:01.364Z,16.77
2024-02-22T22:38:49.817Z,19.30
2024-02-22T22:41:40.616Z,11.18
2024-02-22T22:44:36.604Z,12.45
2024-02-22T22:47:26.144Z,6.25
2024-02-22T22:50:16.591Z,12.88
2024-02-22T22:53:05.230Z,12.10
2024-02-22T22:55:52.896Z,32.80
2024-02-22T22:58:40.093Z,15.43
2024-02-22T23:01:44.620Z,11.43
2024-02-22T23:04:31.685Z,18.13
2024-02-22T23:07:18.851Z,10.43
2024-02-22T23:10:08.776Z,5.93
2024-02-22T23:12:59.627Z,4.32
2024-02-22T23:15:48.893Z,6.97
2024-02-22T23:18:35.475Z,3.35
2024-02-22T23:21:24.254Z,10.23
2024-02-22T23:24:11.987Z,4.30
2024-02-22T23:27:00.134Z,9.25
2024-02-22T23:29:47.989Z,2.88
2024-02-22T23:32:36.277Z,20.05
2024-02-22T23:35:23.832Z,1.42
2024-02-22T23:38:10.413Z,3.67
2024-02-22T23:41:10.542Z,19.48
2024-02-22T23:44:05.532Z,4.10
2024-02-22T23:46:53.357Z,4.45
2024-02-22T23:49:40.585Z,6.43
2024-02-22T23:52:26.919Z,4.70
2024-02-22T23:55:13.310Z,2.40
2024-02-22T23:57:59.846Z,3.28
